Castalia, Iowa
Current Conditions -  °F | °C
As of 12:15 PM on Monday 22 Dec 2014 (Local Time) from KDEH Reporting Station
Haze Haze  
Wind Chill: 29°   Ceiling: Unl
Heat Index: 37°   Visibility: 6mi
Dew Point: 34°   Wind: 13mph
Humidity: 87%   Direction: 140°SE
Pressure: 29.63"   Gusts: 23mph
Location:  43.11°N, 91.68°W
Report Text: KDEH 221815Z AUTO 14011G20KT 6SM BR CLR 03/01 A2963 RMK AO2
Loading
Personal Weather Stations






























Interactive Weather Map New forecast layout! Learn more

10-Day Weather Forecast

Advertisements
Track Severe Weather on mobile